sensor_id;sensor_type;location;lat;lon;timestamp;temperature;humidity
68476;DHT22;55464;48.266;14.188;2022-12-18T00:01:58;-3272.80;82.60
68476;DHT22;55464;48.266;14.188;2022-12-18T00:04:27;-3272.90;82.40
68476;DHT22;55464;48.266;14.188;2022-12-18T00:06:53;-3273.00;82.60
68476;DHT22;55464;48.266;14.188;2022-12-18T00:09:19;-3273.00;83.40
68476;DHT22;55464;48.266;14.188;2022-12-18T00:11:45;-3273.00;83.10
68476;DHT22;55464;48.266;14.188;2022-12-18T00:14:12;-3273.00;83.30
68476;DHT22;55464;48.266;14.188;2022-12-18T00:16:38;-3273.00;82.60
68476;DHT22;55464;48.266;14.188;2022-12-18T00:19:05;-3273.00;82.30
68476;DHT22;55464;48.266;14.188;2022-12-18T00:21:31;-3273.00;83.10
68476;DHT22;55464;48.266;14.188;2022-12-18T00:23:59;-3273.00;82.80
68476;DHT22;55464;48.266;14.188;2022-12-18T00:26:30;-3273.00;83.50
68476;DHT22;55464;48.266;14.188;2022-12-18T00:29:14;-3273.00;83.90
68476;DHT22;55464;48.266;14.188;2022-12-18T00:31:42;-3273.00;84.40
68476;DHT22;55464;48.266;14.188;2022-12-18T00:34:10;-3273.10;84.70
68476;DHT22;55464;48.266;14.188;2022-12-18T00:36:38;-3273.10;86.00
68476;DHT22;55464;48.266;14.188;2022-12-18T00:39:05;-3273.10;86.10
68476;DHT22;55464;48.266;14.188;2022-12-18T00:41:30;-3273.20;86.20
68476;DHT22;55464;48.266;14.188;2022-12-18T00:44:16;-3273.30;86.40
68476;DHT22;55464;48.266;14.188;2022-12-18T00:46:43;-3273.30;86.20
68476;DHT22;55464;48.266;14.188;2022-12-18T00:49:13;-3273.30;85.70
68476;DHT22;55464;48.266;14.188;2022-12-18T00:51:39;-3273.20;85.30
68476;DHT22;55464;48.266;14.188;2022-12-18T00:54:04;-3273.20;84.70
68476;DHT22;55464;48.266;14.188;2022-12-18T00:56:30;-3273.00;83.60
68476;DHT22;55464;48.266;14.188;2022-12-18T00:58:56;-3272.80;83.10
68476;DHT22;55464;48.266;14.188;2022-12-18T01:01:22;-3272.80;83.20
68476;DHT22;55464;48.266;14.188;2022-12-18T01:03:47;-3272.60;83.80
68476;DHT22;55464;48.266;14.188;2022-12-18T01:06:14;-3272.80;84.20
68476;DHT22;55464;48.266;14.188;2022-12-18T01:08:40;-3272.80;84.60
68476;DHT22;55464;48.266;14.188;2022-12-18T01:11:15;-3272.80;85.00
68476;DHT22;55464;48.266;14.188;2022-12-18T01:13:42;-3272.90;85.30
68476;DHT22;55464;48.266;14.188;2022-12-18T01:16:08;-3273.00;85.70
68476;DHT22;55464;48.266;14.188;2022-12-18T01:18:34;-3273.00;85.60
68476;DHT22;55464;48.266;14.188;2022-12-18T01:21:00;-3272.90;86.40
68476;DHT22;55464;48.266;14.188;2022-12-18T01:23:26;-3272.90;86.60
68476;DHT22;55464;48.266;14.188;2022-12-18T01:25:51;-3272.80;86.90
68476;DHT22;55464;48.266;14.188;2022-12-18T01:28:17;-3272.90;86.90
68476;DHT22;55464;48.266;14.188;2022-12-18T01:30:43;-3272.90;87.00
68476;DHT22;55464;48.266;14.188;2022-12-18T01:33:08;-3273.00;87.00
68476;DHT22;55464;48.266;14.188;2022-12-18T01:35:41;-3273.00;86.90
68476;DHT22;55464;48.266;14.188;2022-12-18T01:38:07;-3273.00;86.90
68476;DHT22;55464;48.266;14.188;2022-12-18T01:40:33;-3273.10;86.60
68476;DHT22;55464;48.266;14.188;2022-12-18T01:42:59;-3273.10;86.30
68476;DHT22;55464;48.266;14.188;2022-12-18T01:45:27;-3273.10;86.20
68476;DHT22;55464;48.266;14.188;2022-12-18T01:47:59;-3273.10;86.30
68476;DHT22;55464;48.266;14.188;2022-12-18T01:53:15;-3273.20;86.60
68476;DHT22;55464;48.266;14.188;2022-12-18T01:55:58;-3273.20;86.60
68476;DHT22;55464;48.266;14.188;2022-12-18T01:58:32;-3273.20;86.70
68476;DHT22;55464;48.266;14.188;2022-12-18T02:01:00;-3273.30;86.80
68476;DHT22;55464;48.266;14.188;2022-12-18T02:03:26;-3273.30;86.90
68476;DHT22;55464;48.266;14.188;2022-12-18T02:06:01;-3273.30;86.70
68476;DHT22;55464;48.266;14.188;2022-12-18T02:08:34;-3273.20;86.70
68476;DHT22;55464;48.266;14.188;2022-12-18T02:22:21;-3273.10;87.40
68476;DHT22;55464;48.266;14.188;2022-12-18T02:27:44;-3273.10;87.50
68476;DHT22;55464;48.266;14.188;2022-12-18T02:30:11;-3273.10;87.70
68476;DHT22;55464;48.266;14.188;2022-12-18T02:32:40;-3273.10;87.90
68476;DHT22;55464;48.266;14.188;2022-12-18T02:35:11;-3273.20;87.70
68476;DHT22;55464;48.266;14.188;2022-12-18T02:37:39;-3273.20;87.90
68476;DHT22;55464;48.266;14.188;2022-12-18T02:40:06;-3273.20;88.20
68476;DHT22;55464;48.266;14.188;2022-12-18T02:42:33;-3273.20;88.00
68476;DHT22;55464;48.266;14.188;2022-12-18T02:44:58;-3273.20;87.90
68476;DHT22;55464;48.266;14.188;2022-12-18T02:47:29;-3273.20;87.90
68476;DHT22;55464;48.266;14.188;2022-12-18T03:00:41;-3273.10;88.40
68476;DHT22;55464;48.266;14.188;2022-12-18T03:03:31;-3273.20;87.80
68476;DHT22;55464;48.266;14.188;2022-12-18T03:06:12;-3273.20;88.00
68476;DHT22;55464;48.266;14.188;2022-12-18T03:08:44;-3273.20;87.90
68476;DHT22;55464;48.266;14.188;2022-12-18T03:11:12;-3273.20;88.10
68476;DHT22;55464;48.266;14.188;2022-12-18T03:13:51;-3273.10;87.70
68476;DHT22;55464;48.266;14.188;2022-12-18T03:16:26;-3273.20;87.80
68476;DHT22;55464;48.266;14.188;2022-12-18T03:19:08;-3273.20;87.20
68476;DHT22;55464;48.266;14.188;2022-12-18T03:21:45;-3273.20;87.40
68476;DHT22;55464;48.266;14.188;2022-12-18T03:24:13;-3273.20;87.40
68476;DHT22;55464;48.266;14.188;2022-12-18T03:26:44;-3273.20;87.40
68476;DHT22;55464;48.266;14.188;2022-12-18T03:29:18;-3273.20;87.40
68476;DHT22;55464;48.266;14.188;2022-12-18T03:31:49;-3273.30;87.20
68476;DHT22;55464;48.266;14.188;2022-12-18T03:34:40;-3273.20;87.00
68476;DHT22;55464;48.266;14.188;2022-12-18T03:37:07;-3273.10;87.10
68476;DHT22;55464;48.266;14.188;2022-12-18T03:39:34;-3273.20;87.20
68476;DHT22;55464;48.266;14.188;2022-12-18T03:47:28;-3273.20;86.60
68476;DHT22;55464;48.266;14.188;2022-12-18T03:50:17;-3273.10;86.40
68476;DHT22;55464;48.266;14.188;2022-12-18T03:53:19;-3273.10;86.50
68476;DHT22;55464;48.266;14.188;2022-12-18T03:55:49;-3273.10;86.30
68476;DHT22;55464;48.266;14.188;2022-12-18T03:58:19;-3273.00;86.60
68476;DHT22;55464;48.266;14.188;2022-12-18T04:00:48;-3273.00;86.80
68476;DHT22;55464;48.266;14.188;2022-12-18T04:03:15;-3273.00;86.70
68476;DHT22;55464;48.266;14.188;2022-12-18T04:05:42;-3273.00;86.60
68476;DHT22;55464;48.266;14.188;2022-12-18T04:08:09;-3273.00;86.90
68476;DHT22;55464;48.266;14.188;2022-12-18T04:10:37;-3273.00;86.30
68476;DHT22;55464;48.266;14.188;2022-12-18T04:13:03;-3273.00;86.40
68476;DHT22;55464;48.266;14.188;2022-12-18T04:15:29;-3273.10;86.20
68476;DHT22;55464;48.266;14.188;2022-12-18T04:17:54;-3273.00;85.80
68476;DHT22;55464;48.266;14.188;2022-12-18T04:20:20;-3273.00;85.60
68476;DHT22;55464;48.266;14.188;2022-12-18T04:22:46;-3273.00;85.60
68476;DHT22;55464;48.266;14.188;2022-12-18T04:25:12;-3272.90;85.10
68476;DHT22;55464;48.266;14.188;2022-12-18T04:27:38;-3272.90;84.90
68476;DHT22;55464;48.266;14.188;2022-12-18T04:30:04;-3272.90;84.90
68476;DHT22;55464;48.266;14.188;2022-12-18T04:32:29;-3272.90;84.70
68476;DHT22;55464;48.266;14.188;2022-12-18T04:34:55;-3272.90;84.40
68476;DHT22;55464;48.266;14.188;2022-12-18T04:37:21;-3272.70;84.40
68476;DHT22;55464;48.266;14.188;2022-12-18T04:39:47;-3272.80;84.60
68476;DHT22;55464;48.266;14.188;2022-12-18T04:42:12;-3272.70;84.70
68476;DHT22;55464;48.266;14.188;2022-12-18T04:44:38;-3272.70;85.00
68476;DHT22;55464;48.266;14.188;2022-12-18T04:47:04;-3272.80;84.80
68476;DHT22;55464;48.266;14.188;2022-12-18T04:49:29;-3272.80;84.40
68476;DHT22;55464;48.266;14.188;2022-12-18T04:51:55;-3272.80;84.30
68476;DHT22;55464;48.266;14.188;2022-12-18T04:54:21;-3272.80;84.20
68476;DHT22;55464;48.266;14.188;2022-12-18T04:56:46;-3272.70;84.00
68476;DHT22;55464;48.266;14.188;2022-12-18T04:59:12;-3272.70;84.20
68476;DHT22;55464;48.266;14.188;2022-12-18T05:01:38;-3272.70;84.10
68476;DHT22;55464;48.266;14.188;2022-12-18T05:04:04;-3272.60;84.30
68476;DHT22;55464;48.266;14.188;2022-12-18T05:06:29;-3272.50;84.60
68476;DHT22;55464;48.266;14.188;2022-12-18T05:08:55;-3272.60;84.70
68476;DHT22;55464;48.266;14.188;2022-12-18T05:11:21;-3272.60;84.50
68476;DHT22;55464;48.266;14.188;2022-12-18T05:13:46;-3272.60;84.10
68476;DHT22;55464;48.266;14.188;2022-12-18T05:16:13;-3272.50;84.00
68476;DHT22;55464;48.266;14.188;2022-12-18T05:18:39;-3272.50;83.90
68476;DHT22;55464;48.266;14.188;2022-12-18T05:21:05;-3272.50;83.50
68476;DHT22;55464;48.266;14.188;2022-12-18T05:23:34;-3272.30;83.30
68476;DHT22;55464;48.266;14.188;2022-12-18T05:26:02;-3272.20;82.90
68476;DHT22;55464;48.266;14.188;2022-12-18T05:28:29;-3272.20;82.90
68476;DHT22;55464;48.266;14.188;2022-12-18T05:30:57;-3272.20;82.90
68476;DHT22;55464;48.266;14.188;2022-12-18T05:33:25;-3272.10;82.50
68476;DHT22;55464;48.266;14.188;2022-12-18T05:35:51;-3272.10;82.20
68476;DHT22;55464;48.266;14.188;2022-12-18T05:38:19;-3272.10;82.10
68476;DHT22;55464;48.266;14.188;2022-12-18T05:40:44;-3272.20;81.00
68476;DHT22;55464;48.266;14.188;2022-12-18T05:43:10;-3272.10;80.70
68476;DHT22;55464;48.266;14.188;2022-12-18T05:45:39;-3271.90;80.40
68476;DHT22;55464;48.266;14.188;2022-12-18T05:48:06;-3271.80;80.80
68476;DHT22;55464;48.266;14.188;2022-12-18T05:50:37;-3271.80;80.90
68476;DHT22;55464;48.266;14.188;2022-12-18T05:53:04;-3271.90;80.50
68476;DHT22;55464;48.266;14.188;2022-12-18T05:55:36;-3271.80;79.70
68476;DHT22;55464;48.266;14.188;2022-12-18T05:58:03;-3271.70;80.50
68476;DHT22;55464;48.266;14.188;2022-12-18T06:00:30;-3271.70;80.30
68476;DHT22;55464;48.266;14.188;2022-12-18T06:02:55;-3271.60;79.40
68476;DHT22;55464;48.266;14.188;2022-12-18T06:05:21;-3271.50;79.60
68476;DHT22;55464;48.266;14.188;2022-12-18T06:07:47;-3271.50;78.70
68476;DHT22;55464;48.266;14.188;2022-12-18T06:10:12;-3271.50;78.80
68476;DHT22;55464;48.266;14.188;2022-12-18T06:12:38;-3271.50;78.80
68476;DHT22;55464;48.266;14.188;2022-12-18T06:15:04;-3271.40;78.20
68476;DHT22;55464;48.266;14.188;2022-12-18T06:17:31;-3271.40;78.80
68476;DHT22;55464;48.266;14.188;2022-12-18T06:19:57;-3271.40;79.10
68476;DHT22;55464;48.266;14.188;2022-12-18T06:22:23;-3271.40;78.70
68476;DHT22;55464;48.266;14.188;2022-12-18T06:24:49;-3271.30;78.60
68476;DHT22;55464;48.266;14.188;2022-12-18T06:27:14;-3271.40;78.90
68476;DHT22;55464;48.266;14.188;2022-12-18T06:29:40;-3271.50;78.20
68476;DHT22;55464;48.266;14.188;2022-12-18T06:32:06;-3271.50;77.80
68476;DHT22;55464;48.266;14.188;2022-12-18T06:34:32;-3271.50;77.80
68476;DHT22;55464;48.266;14.188;2022-12-18T06:36:58;-3271.40;77.80
68476;DHT22;55464;48.266;14.188;2022-12-18T06:39:26;-3271.30;78.00
68476;DHT22;55464;48.266;14.188;2022-12-18T06:41:52;-3271.30;78.00
68476;DHT22;55464;48.266;14.188;2022-12-18T06:44:18;-3271.30;78.10
68476;DHT22;55464;48.266;14.188;2022-12-18T06:46:43;-3271.20;77.80
68476;DHT22;55464;48.266;14.188;2022-12-18T06:49:09;-3271.00;77.90
68476;DHT22;55464;48.266;14.188;2022-12-18T06:51:35;-3270.90;78.10
68476;DHT22;55464;48.266;14.188;2022-12-18T06:54:01;-3270.80;78.10
68476;DHT22;55464;48.266;14.188;2022-12-18T06:56:27;-3270.90;78.10
68476;DHT22;55464;48.266;14.188;2022-12-18T06:58:53;-3270.80;77.30
68476;DHT22;55464;48.266;14.188;2022-12-18T07:01:19;-3270.60;78.20
68476;DHT22;55464;48.266;14.188;2022-12-18T07:03:45;-3270.60;78.70
68476;DHT22;55464;48.266;14.188;2022-12-18T07:06:17;-3270.60;79.00
68476;DHT22;55464;48.266;14.188;2022-12-18T07:08:43;-3270.70;79.20
68476;DHT22;55464;48.266;14.188;2022-12-18T07:11:09;-3270.70;79.50
68476;DHT22;55464;48.266;14.188;2022-12-18T07:13:34;-3270.70;79.40
68476;DHT22;55464;48.266;14.188;2022-12-18T07:16:08;-3270.70;79.60
68476;DHT22;55464;48.266;14.188;2022-12-18T07:18:34;-3270.90;79.90
68476;DHT22;55464;48.266;14.188;2022-12-18T07:21:03;-3270.90;79.90
68476;DHT22;55464;48.266;14.188;2022-12-18T07:23:31;-3270.90;80.00
68476;DHT22;55464;48.266;14.188;2022-12-18T07:26:08;-3271.00;79.80
68476;DHT22;55464;48.266;14.188;2022-12-18T07:28:37;-3270.90;79.60
68476;DHT22;55464;48.266;14.188;2022-12-18T07:31:08;-3271.00;79.60
68476;DHT22;55464;48.266;14.188;2022-12-18T07:33:34;-3271.00;79.00
68476;DHT22;55464;48.266;14.188;2022-12-18T07:36:00;-3270.90;79.10
68476;DHT22;55464;48.266;14.188;2022-12-18T07:38:26;-3270.90;79.50
68476;DHT22;55464;48.266;14.188;2022-12-18T07:40:52;-3271.00;79.80
68476;DHT22;55464;48.266;14.188;2022-12-18T07:43:18;-3271.00;79.20
68476;DHT22;55464;48.266;14.188;2022-12-18T07:45:43;-3271.00;79.30
68476;DHT22;55464;48.266;14.188;2022-12-18T07:48:09;-3271.00;79.50
68476;DHT22;55464;48.266;14.188;2022-12-18T07:50:35;-3271.10;80.00
68476;DHT22;55464;48.266;14.188;2022-12-18T07:53:01;-3271.20;79.90
68476;DHT22;55464;48.266;14.188;2022-12-18T07:55:31;-3271.10;80.10
68476;DHT22;55464;48.266;14.188;2022-12-18T07:57:57;-3271.10;79.60
68476;DHT22;55464;48.266;14.188;2022-12-18T08:00:23;-3271.10;79.40
68476;DHT22;55464;48.266;14.188;2022-12-18T08:02:48;-3271.20;79.70
68476;DHT22;55464;48.266;14.188;2022-12-18T08:05:14;-3271.20;79.60
68476;DHT22;55464;48.266;14.188;2022-12-18T08:07:40;-3271.20;80.00
68476;DHT22;55464;48.266;14.188;2022-12-18T08:10:06;-3271.20;80.20
68476;DHT22;55464;48.266;14.188;2022-12-18T08:12:32;-3271.30;80.00
68476;DHT22;55464;48.266;14.188;2022-12-18T08:14:58;-3271.30;79.90
68476;DHT22;55464;48.266;14.188;2022-12-18T08:17:23;-3271.30;80.20
68476;DHT22;55464;48.266;14.188;2022-12-18T08:19:49;-3271.40;80.10
68476;DHT22;55464;48.266;14.188;2022-12-18T08:22:15;-3271.40;79.80
68476;DHT22;55464;48.266;14.188;2022-12-18T08:24:40;-3271.50;79.70
68476;DHT22;55464;48.266;14.188;2022-12-18T08:27:06;-3271.50;79.70
68476;DHT22;55464;48.266;14.188;2022-12-18T08:29:31;-3271.60;80.00
68476;DHT22;55464;48.266;14.188;2022-12-18T08:31:57;-3271.70;80.10
68476;DHT22;55464;48.266;14.188;2022-12-18T08:34:23;-3271.80;80.10
68476;DHT22;55464;48.266;14.188;2022-12-18T08:36:49;-3271.80;80.20
68476;DHT22;55464;48.266;14.188;2022-12-18T08:39:14;-3271.80;80.70
68476;DHT22;55464;48.266;14.188;2022-12-18T08:41:40;-3271.90;81.00
68476;DHT22;55464;48.266;14.188;2022-12-18T08:44:07;-3271.90;81.20
68476;DHT22;55464;48.266;14.188;2022-12-18T08:46:51;-3272.00;81.40
68476;DHT22;55464;48.266;14.188;2022-12-18T08:49:17;-3272.00;81.60
68476;DHT22;55464;48.266;14.188;2022-12-18T08:51:43;-3272.00;81.60
68476;DHT22;55464;48.266;14.188;2022-12-18T08:54:11;-3272.00;81.70
68476;DHT22;55464;48.266;14.188;2022-12-18T08:56:38;-3272.00;81.70
68476;DHT22;55464;48.266;14.188;2022-12-18T08:59:03;-3272.00;81.60
68476;DHT22;55464;48.266;14.188;2022-12-18T09:01:29;-3272.00;81.50
68476;DHT22;55464;48.266;14.188;2022-12-18T09:03:55;-3272.00;81.40
68476;DHT22;55464;48.266;14.188;2022-12-18T09:06:22;-3272.00;81.20
68476;DHT22;55464;48.266;14.188;2022-12-18T09:08:48;-3272.10;81.30
68476;DHT22;55464;48.266;14.188;2022-12-18T09:11:19;-3272.20;81.10
68476;DHT22;55464;48.266;14.188;2022-12-18T09:13:45;-3272.30;81.10
68476;DHT22;55464;48.266;14.188;2022-12-18T09:16:11;-3272.30;81.00
68476;DHT22;55464;48.266;14.188;2022-12-18T09:18:37;-3272.30;81.10
68476;DHT22;55464;48.266;14.188;2022-12-18T09:21:30;-3272.30;81.00
68476;DHT22;55464;48.266;14.188;2022-12-18T09:23:56;-3272.40;80.80
68476;DHT22;55464;48.266;14.188;2022-12-18T09:26:23;-3272.40;80.50
68476;DHT22;55464;48.266;14.188;2022-12-18T09:28:49;-3272.40;80.70
68476;DHT22;55464;48.266;14.188;2022-12-18T09:31:17;-3272.40;80.60
68476;DHT22;55464;48.266;14.188;2022-12-18T09:33:43;-3272.50;80.70
68476;DHT22;55464;48.266;14.188;2022-12-18T09:36:12;-3272.60;80.50
68476;DHT22;55464;48.266;14.188;2022-12-18T09:38:38;-3272.60;80.30
68476;DHT22;55464;48.266;14.188;2022-12-18T09:43:51;-3272.70;80.60
68476;DHT22;55464;48.266;14.188;2022-12-18T09:46:26;-3272.80;80.50
68476;DHT22;55464;48.266;14.188;2022-12-18T09:48:56;-3272.90;80.40
68476;DHT22;55464;48.266;14.188;2022-12-18T09:51:30;-3272.90;79.50
68476;DHT22;55464;48.266;14.188;2022-12-18T09:54:01;-3273.00;79.70
68476;DHT22;55464;48.266;14.188;2022-12-18T09:56:40;-3273.10;79.40
68476;DHT22;55464;48.266;14.188;2022-12-18T09:59:19;-3273.10;79.10
68476;DHT22;55464;48.266;14.188;2022-12-18T10:01:46;-3273.20;79.30
68476;DHT22;55464;48.266;14.188;2022-12-18T10:04:12;-3273.20;79.00
68476;DHT22;55464;48.266;14.188;2022-12-18T10:06:52;-3273.40;79.20
68476;DHT22;55464;48.266;14.188;2022-12-18T10:14:40;-3273.40;78.70
68476;DHT22;55464;48.266;14.188;2022-12-18T10:17:32;-3273.50;78.50
68476;DHT22;55464;48.266;14.188;2022-12-18T10:20:05;-3273.40;78.40
68476;DHT22;55464;48.266;14.188;2022-12-18T10:27:45;-3273.90;77.50
68476;DHT22;55464;48.266;14.188;2022-12-18T10:30:16;-3273.90;77.30
68476;DHT22;55464;48.266;14.188;2022-12-18T10:32:42;-3273.90;77.00
68476;DHT22;55464;48.266;14.188;2022-12-18T10:35:19;-3273.90;77.30
68476;DHT22;55464;48.266;14.188;2022-12-18T10:48:34;-3273.90;76.60
68476;DHT22;55464;48.266;14.188;2022-12-18T10:51:02;-3273.90;76.10
68476;DHT22;55464;48.266;14.188;2022-12-18T10:53:30;-3274.00;75.60
68476;DHT22;55464;48.266;14.188;2022-12-18T10:56:00;-3274.10;75.10
68476;DHT22;55464;48.266;14.188;2022-12-18T10:58:33;-3274.20;75.10
68476;DHT22;55464;48.266;14.188;2022-12-18T11:06:23;-3274.70;73.40
68476;DHT22;55464;48.266;14.188;2022-12-18T11:09:22;-3275.00;73.50
68476;DHT22;55464;48.266;14.188;2022-12-18T11:11:50;-3275.30;73.00
68476;DHT22;55464;48.266;14.188;2022-12-18T11:14:30;-3275.50;71.70
68476;DHT22;55464;48.266;14.188;2022-12-18T11:16:58;-3275.70;70.80
68476;DHT22;55464;48.266;14.188;2022-12-18T11:19:39;-3276.00;70.20
68476;DHT22;55464;48.266;14.188;2022-12-18T11:22:32;-3276.10;69.90
68476;DHT22;55464;48.266;14.188;2022-12-18T11:25:05;-3276.30;69.90
68476;DHT22;55464;48.266;14.188;2022-12-18T11:27:32;-3276.60;68.60
68476;DHT22;55464;48.266;14.188;2022-12-18T11:30:35;0.00;68.30
68476;DHT22;55464;48.266;14.188;2022-12-18T11:33:21;0.00;67.80
68476;DHT22;55464;48.266;14.188;2022-12-18T11:36:00;0.40;66.60
68476;DHT22;55464;48.266;14.188;2022-12-18T11:38:33;0.90;64.70
68476;DHT22;55464;48.266;14.188;2022-12-18T11:41:21;1.10;64.40
68476;DHT22;55464;48.266;14.188;2022-12-18T11:44:11;1.60;63.10
68476;DHT22;55464;48.266;14.188;2022-12-18T11:46:49;2.00;61.30
68476;DHT22;55464;48.266;14.188;2022-12-18T11:49:32;2.10;60.40
68476;DHT22;55464;48.266;14.188;2022-12-18T11:54:25;2.70;58.90
68476;DHT22;55464;48.266;14.188;2022-12-18T11:56:56;2.80;58.00
68476;DHT22;55464;48.266;14.188;2022-12-18T12:10:01;4.70;52.80
68476;DHT22;55464;48.266;14.188;2022-12-18T12:12:39;5.10;51.00
68476;DHT22;55464;48.266;14.188;2022-12-18T12:15:28;5.40;50.10
68476;DHT22;55464;48.266;14.188;2022-12-18T12:18:08;5.50;49.70
68476;DHT22;55464;48.266;14.188;2022-12-18T12:20:49;4.70;51.40
68476;DHT22;55464;48.266;14.188;2022-12-18T12:26:13;4.70;52.10
68476;DHT22;55464;48.266;14.188;2022-12-18T12:34:01;6.10;48.40
68476;DHT22;55464;48.266;14.188;2022-12-18T12:37:07;6.60;46.50
68476;DHT22;55464;48.266;14.188;2022-12-18T12:39:39;6.80;45.10
68476;DHT22;55464;48.266;14.188;2022-12-18T12:42:13;7.00;45.60
68476;DHT22;55464;48.266;14.188;2022-12-18T12:45:02;7.10;44.70
68476;DHT22;55464;48.266;14.188;2022-12-18T12:47:41;6.70;45.40
68476;DHT22;55464;48.266;14.188;2022-12-18T12:50:17;6.40;46.10
68476;DHT22;55464;48.266;14.188;2022-12-18T12:52:47;5.80;47.50
68476;DHT22;55464;48.266;14.188;2022-12-18T12:55:21;6.00;47.60
68476;DHT22;55464;48.266;14.188;2022-12-18T12:58:16;5.50;48.90
68476;DHT22;55464;48.266;14.188;2022-12-18T13:07:16;4.60;51.00
68476;DHT22;55464;48.266;14.188;2022-12-18T13:13:09;2.80;56.30
68476;DHT22;55464;48.266;14.188;2022-12-18T13:15:46;2.30;58.10
68476;DHT22;55464;48.266;14.188;2022-12-18T13:30:57;0.90;63.90
68476;DHT22;55464;48.266;14.188;2022-12-18T13:33:43;0.70;65.00
68476;DHT22;55464;48.266;14.188;2022-12-18T13:36:23;0.60;65.80
68476;DHT22;55464;48.266;14.188;2022-12-18T13:41:44;0.40;67.20
68476;DHT22;55464;48.266;14.188;2022-12-18T13:46:49;0.10;68.40
68476;DHT22;55464;48.266;14.188;2022-12-18T13:51:56;0.00;69.10
68476;DHT22;55464;48.266;14.188;2022-12-18T13:56:50;-3276.70;70.10
68476;DHT22;55464;48.266;14.188;2022-12-18T13:59:23;-3276.50;70.20
68476;DHT22;55464;48.266;14.188;2022-12-18T14:01:53;-3276.20;71.70
68476;DHT22;55464;48.266;14.188;2022-12-18T14:04:25;-3276.00;72.70
68476;DHT22;55464;48.266;14.188;2022-12-18T14:07:18;-3275.90;73.40
68476;DHT22;55464;48.266;14.188;2022-12-18T14:09:53;-3275.80;74.10
68476;DHT22;55464;48.266;14.188;2022-12-18T14:12:27;-3275.70;74.70
68476;DHT22;55464;48.266;14.188;2022-12-18T14:18:24;-3275.70;75.30
68476;DHT22;55464;48.266;14.188;2022-12-18T14:20:53;-3275.60;75.70
68476;DHT22;55464;48.266;14.188;2022-12-18T14:23:29;-3275.50;76.10
68476;DHT22;55464;48.266;14.188;2022-12-18T14:25:55;-3275.60;76.30
68476;DHT22;55464;48.266;14.188;2022-12-18T14:28:21;-3275.50;76.30
68476;DHT22;55464;48.266;14.188;2022-12-18T14:30:48;-3275.40;76.60
68476;DHT22;55464;48.266;14.188;2022-12-18T14:33:17;-3275.40;77.20
68476;DHT22;55464;48.266;14.188;2022-12-18T14:35:59;-3275.40;77.40
68476;DHT22;55464;48.266;14.188;2022-12-18T14:40:58;-3275.20;78.00
68476;DHT22;55464;48.266;14.188;2022-12-18T14:43:24;-3275.20;78.20
68476;DHT22;55464;48.266;14.188;2022-12-18T14:45:50;-3275.30;77.80
68476;DHT22;55464;48.266;14.188;2022-12-18T14:50:44;-3275.30;77.30
68476;DHT22;55464;48.266;14.188;2022-12-18T14:53:23;-3275.30;77.40
68476;DHT22;55464;48.266;14.188;2022-12-18T14:55:52;-3275.30;77.30
68476;DHT22;55464;48.266;14.188;2022-12-18T14:58:18;-3275.30;77.50
68476;DHT22;55464;48.266;14.188;2022-12-18T15:00:44;-3275.20;77.60
68476;DHT22;55464;48.266;14.188;2022-12-18T15:03:10;-3275.20;77.90
68476;DHT22;55464;48.266;14.188;2022-12-18T15:05:36;-3275.20;77.90
68476;DHT22;55464;48.266;14.188;2022-12-18T15:08:02;-3275.20;78.10
68476;DHT22;55464;48.266;14.188;2022-12-18T15:10:30;-3275.10;77.90
68476;DHT22;55464;48.266;14.188;2022-12-18T15:20:48;-3275.00;78.40
68476;DHT22;55464;48.266;14.188;2022-12-18T15:23:20;-3275.00;78.40
68476;DHT22;55464;48.266;14.188;2022-12-18T15:25:55;-3275.00;78.60
68476;DHT22;55464;48.266;14.188;2022-12-18T15:33:59;-3275.00;78.40
68476;DHT22;55464;48.266;14.188;2022-12-18T15:36:26;-3275.00;78.60
68476;DHT22;55464;48.266;14.188;2022-12-18T15:38:56;-3274.80;78.90
68476;DHT22;55464;48.266;14.188;2022-12-18T15:41:23;-3274.80;78.80
68476;DHT22;55464;48.266;14.188;2022-12-18T15:43:51;-3274.80;79.10
68476;DHT22;55464;48.266;14.188;2022-12-18T15:46:22;-3274.90;79.20
68476;DHT22;55464;48.266;14.188;2022-12-18T15:48:51;-3274.80;78.90
68476;DHT22;55464;48.266;14.188;2022-12-18T15:51:22;-3274.80;79.20
68476;DHT22;55464;48.266;14.188;2022-12-18T15:53:50;-3274.70;79.10
68476;DHT22;55464;48.266;14.188;2022-12-18T15:56:16;-3274.80;79.10
68476;DHT22;55464;48.266;14.188;2022-12-18T15:59:01;-3274.80;79.30
68476;DHT22;55464;48.266;14.188;2022-12-18T16:01:29;-3274.80;79.20
68476;DHT22;55464;48.266;14.188;2022-12-18T16:03:56;-3274.80;79.30
68476;DHT22;55464;48.266;14.188;2022-12-18T16:06:22;-3274.70;79.40
68476;DHT22;55464;48.266;14.188;2022-12-18T16:08:48;-3274.70;79.90
68476;DHT22;55464;48.266;14.188;2022-12-18T16:11:29;-3274.70;80.10
68476;DHT22;55464;48.266;14.188;2022-12-18T16:14:17;-3274.70;80.10
68476;DHT22;55464;48.266;14.188;2022-12-18T16:16:45;-3274.60;79.70
68476;DHT22;55464;48.266;14.188;2022-12-18T16:19:11;-3274.70;80.00
68476;DHT22;55464;48.266;14.188;2022-12-18T16:21:37;-3274.70;79.70
68476;DHT22;55464;48.266;14.188;2022-12-18T16:24:03;-3274.60;80.00
68476;DHT22;55464;48.266;14.188;2022-12-18T16:26:29;-3274.70;79.90
68476;DHT22;55464;48.266;14.188;2022-12-18T16:28:58;-3274.70;80.00
68476;DHT22;55464;48.266;14.188;2022-12-18T16:31:23;-3274.70;80.30
68476;DHT22;55464;48.266;14.188;2022-12-18T16:33:49;-3274.70;80.00
68476;DHT22;55464;48.266;14.188;2022-12-18T16:36:15;-3274.60;80.10
68476;DHT22;55464;48.266;14.188;2022-12-18T16:38:40;-3274.70;80.10
68476;DHT22;55464;48.266;14.188;2022-12-18T16:41:18;-3274.60;80.20
68476;DHT22;55464;48.266;14.188;2022-12-18T16:43:59;-3274.60;80.20
68476;DHT22;55464;48.266;14.188;2022-12-18T16:46:26;-3274.60;80.30
68476;DHT22;55464;48.266;14.188;2022-12-18T16:48:52;-3274.60;80.20
68476;DHT22;55464;48.266;14.188;2022-12-18T16:51:18;-3274.60;80.20
68476;DHT22;55464;48.266;14.188;2022-12-18T16:53:47;-3274.60;80.30
68476;DHT22;55464;48.266;14.188;2022-12-18T16:56:12;-3274.60;80.40
68476;DHT22;55464;48.266;14.188;2022-12-18T16:58:38;-3274.60;80.40
68476;DHT22;55464;48.266;14.188;2022-12-18T17:01:10;-3274.60;80.50
68476;DHT22;55464;48.266;14.188;2022-12-18T17:03:36;-3274.50;80.20
68476;DHT22;55464;48.266;14.188;2022-12-18T17:06:06;-3274.50;80.30
68476;DHT22;55464;48.266;14.188;2022-12-18T17:08:32;-3274.50;80.70
68476;DHT22;55464;48.266;14.188;2022-12-18T17:11:07;-3274.50;80.90
68476;DHT22;55464;48.266;14.188;2022-12-18T17:13:33;-3274.50;81.10
68476;DHT22;55464;48.266;14.188;2022-12-18T17:16:06;-3274.50;80.90